sensor_id;sensor_type;location;lat;lon;timestamp;P1;durP1;ratioP1;P2;durP2;ratioP2
64110;SDS011;50401;48.188;11.566;2023-12-20T00:00:55;6.30;;;2.50;;
64110;SDS011;50401;48.188;11.566;2023-12-20T00:03:21;4.53;;;2.28;;
64110;SDS011;50401;48.188;11.566;2023-12-20T00:05:46;5.50;;;2.38;;
64110;SDS011;50401;48.188;11.566;2023-12-20T00:08:12;9.23;;;2.80;;
64110;SDS011;50401;48.188;11.566;2023-12-20T00:10:38;3.80;;;2.65;;
64110;SDS011;50401;48.188;11.566;2023-12-20T00:13:03;3.28;;;2.28;;
64110;SDS011;50401;48.188;11.566;2023-12-20T00:15:29;6.47;;;2.95;;
64110;SDS011;50401;48.188;11.566;2023-12-20T00:17:54;4.22;;;2.83;;
64110;SDS011;50401;48.188;11.566;2023-12-20T00:20:19;4.60;;;2.78;;
64110;SDS011;50401;48.188;11.566;2023-12-20T00:22:45;16.42;;;3.25;;
64110;SDS011;50401;48.188;11.566;2023-12-20T00:25:11;9.93;;;2.58;;
64110;SDS011;50401;48.188;11.566;2023-12-20T00:27:36;4.80;;;2.33;;
64110;SDS011;50401;48.188;11.566;2023-12-20T00:30:02;4.93;;;2.88;;
64110;SDS011;50401;48.188;11.566;2023-12-20T00:32:27;6.03;;;2.85;;
64110;SDS011;50401;48.188;11.566;2023-12-20T00:34:52;4.22;;;2.45;;
64110;SDS011;50401;48.188;11.566;2023-12-20T00:37:18;4.35;;;2.75;;
64110;SDS011;50401;48.188;11.566;2023-12-20T00:39:43;5.70;;;2.63;;
64110;SDS011;50401;48.188;11.566;2023-12-20T00:42:09;5.70;;;2.35;;
64110;SDS011;50401;48.188;11.566;2023-12-20T00:44:34;2.78;;;2.17;;
64110;SDS011;50401;48.188;11.566;2023-12-20T00:46:59;5.00;;;2.13;;
64110;SDS011;50401;48.188;11.566;2023-12-20T00:49:26;6.43;;;2.30;;
64110;SDS011;50401;48.188;11.566;2023-12-20T00:51:51;6.13;;;2.50;;
64110;SDS011;50401;48.188;11.566;2023-12-20T00:54:17;2.58;;;1.80;;
64110;SDS011;50401;48.188;11.566;2023-12-20T00:56:43;4.03;;;2.10;;
64110;SDS011;50401;48.188;11.566;2023-12-20T00:59:08;2.83;;;2.00;;
64110;SDS011;50401;48.188;11.566;2023-12-20T01:01:34;4.03;;;2.47;;
64110;SDS011;50401;48.188;11.566;2023-12-20T01:03:59;5.50;;;2.03;;
64110;SDS011;50401;48.188;11.566;2023-12-20T01:06:25;3.80;;;2.10;;
64110;SDS011;50401;48.188;11.566;2023-12-20T01:08:50;8.13;;;2.33;;
64110;SDS011;50401;48.188;11.566;2023-12-20T01:11:15;4.28;;;1.80;;
64110;SDS011;50401;48.188;11.566;2023-12-20T01:13:41;4.22;;;2.08;;
64110;SDS011;50401;48.188;11.566;2023-12-20T01:16:08;2.72;;;1.70;;
64110;SDS011;50401;48.188;11.566;2023-12-20T01:18:35;3.67;;;1.98;;
64110;SDS011;50401;48.188;11.566;2023-12-20T01:21:01;3.60;;;2.30;;
64110;SDS011;50401;48.188;11.566;2023-12-20T01:23:28;5.82;;;2.15;;
64110;SDS011;50401;48.188;11.566;2023-12-20T01:25:53;4.30;;;1.88;;
64110;SDS011;50401;48.188;11.566;2023-12-20T01:28:19;2.13;;;1.52;;
64110;SDS011;50401;48.188;11.566;2023-12-20T01:30:44;6.95;;;1.83;;
64110;SDS011;50401;48.188;11.566;2023-12-20T01:33:10;5.38;;;2.85;;
64110;SDS011;50401;48.188;11.566;2023-12-20T01:35:35;7.43;;;1.90;;
64110;SDS011;50401;48.188;11.566;2023-12-20T01:38:00;3.25;;;1.70;;
64110;SDS011;50401;48.188;11.566;2023-12-20T01:40:26;4.32;;;1.80;;
64110;SDS011;50401;48.188;11.566;2023-12-20T01:43:00;3.10;;;1.67;;
64110;SDS011;50401;48.188;11.566;2023-12-20T01:45:26;10.50;;;2.47;;
64110;SDS011;50401;48.188;11.566;2023-12-20T01:47:52;8.00;;;1.70;;
64110;SDS011;50401;48.188;11.566;2023-12-20T01:50:19;2.42;;;1.60;;
64110;SDS011;50401;48.188;11.566;2023-12-20T01:52:46;3.50;;;1.85;;
64110;SDS011;50401;48.188;11.566;2023-12-20T01:55:11;2.28;;;1.50;;
64110;SDS011;50401;48.188;11.566;2023-12-20T01:57:40;4.33;;;1.40;;
64110;SDS011;50401;48.188;11.566;2023-12-20T02:00:06;4.53;;;1.88;;
64110;SDS011;50401;48.188;11.566;2023-12-20T02:02:34;4.68;;;1.77;;
64110;SDS011;50401;48.188;11.566;2023-12-20T02:05:04;3.28;;;1.42;;
64110;SDS011;50401;48.188;11.566;2023-12-20T02:07:30;2.38;;;1.52;;
64110;SDS011;50401;48.188;11.566;2023-12-20T02:09:56;1.80;;;1.48;;
64110;SDS011;50401;48.188;11.566;2023-12-20T02:12:21;15.10;;;2.38;;
64110;SDS011;50401;48.188;11.566;2023-12-20T02:14:47;4.18;;;1.60;;
64110;SDS011;50401;48.188;11.566;2023-12-20T02:17:13;2.05;;;1.60;;
64110;SDS011;50401;48.188;11.566;2023-12-20T02:19:38;2.65;;;1.50;;
64110;SDS011;50401;48.188;11.566;2023-12-20T02:22:12;1.65;;;1.23;;
64110;SDS011;50401;48.188;11.566;2023-12-20T02:24:38;3.88;;;1.75;;
64110;SDS011;50401;48.188;11.566;2023-12-20T02:27:05;5.07;;;1.75;;
64110;SDS011;50401;48.188;11.566;2023-12-20T02:29:32;2.65;;;1.55;;
64110;SDS011;50401;48.188;11.566;2023-12-20T02:31:58;3.50;;;1.45;;
64110;SDS011;50401;48.188;11.566;2023-12-20T02:34:23;3.35;;;1.52;;
64110;SDS011;50401;48.188;11.566;2023-12-20T02:36:49;4.00;;;1.20;;
64110;SDS011;50401;48.188;11.566;2023-12-20T02:39:14;5.38;;;1.35;;
64110;SDS011;50401;48.188;11.566;2023-12-20T02:41:39;1.60;;;1.10;;
64110;SDS011;50401;48.188;11.566;2023-12-20T02:44:05;2.78;;;1.30;;
64110;SDS011;50401;48.188;11.566;2023-12-20T02:46:30;6.18;;;1.75;;
64110;SDS011;50401;48.188;11.566;2023-12-20T02:48:55;4.40;;;1.33;;
64110;SDS011;50401;48.188;11.566;2023-12-20T02:51:21;1.17;;;0.93;;
64110;SDS011;50401;48.188;11.566;2023-12-20T02:53:46;2.03;;;1.08;;
64110;SDS011;50401;48.188;11.566;2023-12-20T02:56:11;2.25;;;0.82;;
64110;SDS011;50401;48.188;11.566;2023-12-20T02:58:39;6.20;;;1.10;;
64110;SDS011;50401;48.188;11.566;2023-12-20T03:01:05;0.85;;;0.80;;
64110;SDS011;50401;48.188;11.566;2023-12-20T03:03:31;1.63;;;0.80;;
64110;SDS011;50401;48.188;11.566;2023-12-20T03:05:57;0.88;;;0.70;;
64110;SDS011;50401;48.188;11.566;2023-12-20T03:08:22;1.45;;;0.85;;
64110;SDS011;50401;48.188;11.566;2023-12-20T03:10:47;1.63;;;0.70;;
64110;SDS011;50401;48.188;11.566;2023-12-20T03:13:13;9.10;;;0.95;;
64110;SDS011;50401;48.188;11.566;2023-12-20T03:15:39;1.13;;;0.70;;
64110;SDS011;50401;48.188;11.566;2023-12-20T03:18:04;1.15;;;0.70;;
64110;SDS011;50401;48.188;11.566;2023-12-20T03:20:30;0.73;;;0.70;;
64110;SDS011;50401;48.188;11.566;2023-12-20T03:22:59;0.93;;;0.80;;
64110;SDS011;50401;48.188;11.566;2023-12-20T03:25:24;16.75;;;1.10;;
64110;SDS011;50401;48.188;11.566;2023-12-20T03:27:50;3.95;;;0.85;;
64110;SDS011;50401;48.188;11.566;2023-12-20T03:30:15;1.83;;;0.80;;
64110;SDS011;50401;48.188;11.566;2023-12-20T03:32:41;1.75;;;0.70;;
64110;SDS011;50401;48.188;11.566;2023-12-20T03:35:06;5.63;;;0.98;;
64110;SDS011;50401;48.188;11.566;2023-12-20T03:37:31;9.07;;;1.10;;
64110;SDS011;50401;48.188;11.566;2023-12-20T03:39:57;2.92;;;0.80;;
64110;SDS011;50401;48.188;11.566;2023-12-20T03:42:22;4.20;;;0.80;;
64110;SDS011;50401;48.188;11.566;2023-12-20T03:44:48;12.10;;;0.90;;
64110;SDS011;50401;48.188;11.566;2023-12-20T03:47:13;2.33;;;0.95;;
64110;SDS011;50401;48.188;11.566;2023-12-20T03:49:38;1.98;;;0.90;;
64110;SDS011;50401;48.188;11.566;2023-12-20T03:52:04;8.85;;;1.20;;
64110;SDS011;50401;48.188;11.566;2023-12-20T03:54:30;3.05;;;0.80;;
64110;SDS011;50401;48.188;11.566;2023-12-20T03:56:55;1.48;;;0.70;;
64110;SDS011;50401;48.188;11.566;2023-12-20T03:59:20;0.63;;;0.63;;
64110;SDS011;50401;48.188;11.566;2023-12-20T04:01:46;2.78;;;0.85;;
64110;SDS011;50401;48.188;11.566;2023-12-20T04:04:11;1.75;;;0.95;;
64110;SDS011;50401;48.188;11.566;2023-12-20T04:06:37;1.27;;;0.82;;
64110;SDS011;50401;48.188;11.566;2023-12-20T04:09:03;3.40;;;1.67;;
64110;SDS011;50401;48.188;11.566;2023-12-20T04:11:28;1.90;;;1.08;;
64110;SDS011;50401;48.188;11.566;2023-12-20T04:13:54;4.40;;;0.77;;
64110;SDS011;50401;48.188;11.566;2023-12-20T04:16:19;1.25;;;1.00;;
64110;SDS011;50401;48.188;11.566;2023-12-20T04:18:44;1.63;;;0.98;;
64110;SDS011;50401;48.188;11.566;2023-12-20T04:21:10;0.93;;;0.80;;
64110;SDS011;50401;48.188;11.566;2023-12-20T04:23:35;3.97;;;0.95;;
64110;SDS011;50401;48.188;11.566;2023-12-20T04:26:00;3.97;;;0.90;;
64110;SDS011;50401;48.188;11.566;2023-12-20T04:28:26;1.85;;;1.15;;
64110;SDS011;50401;48.188;11.566;2023-12-20T04:30:51;1.42;;;1.00;;
64110;SDS011;50401;48.188;11.566;2023-12-20T04:33:16;1.67;;;1.20;;
64110;SDS011;50401;48.188;11.566;2023-12-20T04:35:42;1.92;;;1.30;;
64110;SDS011;50401;48.188;11.566;2023-12-20T04:38:08;1.42;;;1.20;;
64110;SDS011;50401;48.188;11.566;2023-12-20T04:40:34;2.33;;;1.45;;
64110;SDS011;50401;48.188;11.566;2023-12-20T04:42:59;1.67;;;1.30;;
64110;SDS011;50401;48.188;11.566;2023-12-20T04:45:25;4.70;;;1.65;;
64110;SDS011;50401;48.188;11.566;2023-12-20T04:47:51;5.25;;;1.38;;
64110;SDS011;50401;48.188;11.566;2023-12-20T04:50:16;3.67;;;1.75;;
64110;SDS011;50401;48.188;11.566;2023-12-20T04:52:42;2.13;;;1.63;;
64110;SDS011;50401;48.188;11.566;2023-12-20T04:55:07;2.45;;;1.90;;
64110;SDS011;50401;48.188;11.566;2023-12-20T04:57:34;2.50;;;1.70;;
64110;SDS011;50401;48.188;11.566;2023-12-20T04:59:59;5.57;;;1.77;;
64110;SDS011;50401;48.188;11.566;2023-12-20T05:02:25;8.48;;;2.20;;
64110;SDS011;50401;48.188;11.566;2023-12-20T05:04:50;7.95;;;2.38;;
64110;SDS011;50401;48.188;11.566;2023-12-20T05:07:16;11.02;;;2.20;;
64110;SDS011;50401;48.188;11.566;2023-12-20T05:09:41;12.05;;;2.83;;
64110;SDS011;50401;48.188;11.566;2023-12-20T05:12:06;6.43;;;2.13;;
64110;SDS011;50401;48.188;11.566;2023-12-20T05:14:32;21.95;;;3.25;;
64110;SDS011;50401;48.188;11.566;2023-12-20T05:16:57;12.50;;;3.65;;
64110;SDS011;50401;48.188;11.566;2023-12-20T05:19:23;15.98;;;3.40;;
64110;SDS011;50401;48.188;11.566;2023-12-20T05:21:49;9.38;;;3.47;;
64110;SDS011;50401;48.188;11.566;2023-12-20T05:24:14;13.35;;;3.25;;
64110;SDS011;50401;48.188;11.566;2023-12-20T05:26:40;6.57;;;3.42;;
64110;SDS011;50401;48.188;11.566;2023-12-20T05:29:05;14.35;;;4.00;;
64110;SDS011;50401;48.188;11.566;2023-12-20T05:31:31;33.45;;;5.18;;
64110;SDS011;50401;48.188;11.566;2023-12-20T05:33:57;8.35;;;3.75;;
64110;SDS011;50401;48.188;11.566;2023-12-20T05:36:22;21.33;;;4.60;;
64110;SDS011;50401;48.188;11.566;2023-12-20T05:38:48;9.90;;;3.85;;
64110;SDS011;50401;48.188;11.566;2023-12-20T05:41:13;14.90;;;4.72;;
64110;SDS011;50401;48.188;11.566;2023-12-20T05:43:39;14.18;;;5.13;;
64110;SDS011;50401;48.188;11.566;2023-12-20T05:46:04;18.02;;;3.95;;
64110;SDS011;50401;48.188;11.566;2023-12-20T05:48:30;19.58;;;4.90;;
64110;SDS011;50401;48.188;11.566;2023-12-20T05:50:55;12.45;;;4.63;;
64110;SDS011;50401;48.188;11.566;2023-12-20T05:53:21;19.20;;;4.38;;
64110;SDS011;50401;48.188;11.566;2023-12-20T05:55:46;14.77;;;5.13;;
64110;SDS011;50401;48.188;11.566;2023-12-20T05:58:11;14.18;;;4.53;;
64110;SDS011;50401;48.188;11.566;2023-12-20T06:00:37;16.40;;;4.70;;
64110;SDS011;50401;48.188;11.566;2023-12-20T06:03:03;12.77;;;4.15;;
64110;SDS011;50401;48.188;11.566;2023-12-20T06:05:29;12.48;;;4.30;;
64110;SDS011;50401;48.188;11.566;2023-12-20T06:07:55;12.77;;;4.13;;
64110;SDS011;50401;48.188;11.566;2023-12-20T06:10:26;13.80;;;4.82;;
64110;SDS011;50401;48.188;11.566;2023-12-20T06:12:51;11.35;;;5.00;;
64110;SDS011;50401;48.188;11.566;2023-12-20T06:15:17;11.32;;;4.13;;
64110;SDS011;50401;48.188;11.566;2023-12-20T06:17:42;11.63;;;4.40;;
64110;SDS011;50401;48.188;11.566;2023-12-20T06:20:08;11.48;;;4.60;;
64110;SDS011;50401;48.188;11.566;2023-12-20T06:22:34;26.02;;;4.70;;
64110;SDS011;50401;48.188;11.566;2023-12-20T06:25:00;17.50;;;4.88;;
64110;SDS011;50401;48.188;11.566;2023-12-20T06:27:27;20.83;;;4.63;;
64110;SDS011;50401;48.188;11.566;2023-12-20T06:29:53;13.50;;;5.35;;
64110;SDS011;50401;48.188;11.566;2023-12-20T06:32:18;16.85;;;5.55;;
64110;SDS011;50401;48.188;11.566;2023-12-20T06:34:44;12.88;;;4.85;;
64110;SDS011;50401;48.188;11.566;2023-12-20T06:37:09;13.73;;;4.93;;
64110;SDS011;50401;48.188;11.566;2023-12-20T06:39:34;12.40;;;5.13;;
64110;SDS011;50401;48.188;11.566;2023-12-20T06:42:00;14.18;;;5.10;;
64110;SDS011;50401;48.188;11.566;2023-12-20T06:44:25;10.20;;;4.93;;
64110;SDS011;50401;48.188;11.566;2023-12-20T06:46:51;9.25;;;4.78;;
64110;SDS011;50401;48.188;11.566;2023-12-20T06:49:16;11.23;;;5.45;;
64110;SDS011;50401;48.188;11.566;2023-12-20T06:51:41;19.75;;;5.53;;
64110;SDS011;50401;48.188;11.566;2023-12-20T06:54:07;11.50;;;5.03;;
64110;SDS011;50401;48.188;11.566;2023-12-20T06:56:32;11.95;;;5.00;;
64110;SDS011;50401;48.188;11.566;2023-12-20T06:58:58;10.82;;;5.07;;
64110;SDS011;50401;48.188;11.566;2023-12-20T07:01:24;17.10;;;5.00;;
64110;SDS011;50401;48.188;11.566;2023-12-20T07:03:49;51.38;;;8.27;;
64110;SDS011;50401;48.188;11.566;2023-12-20T07:06:14;13.32;;;4.72;;
64110;SDS011;50401;48.188;11.566;2023-12-20T07:08:41;20.40;;;5.00;;
64110;SDS011;50401;48.188;11.566;2023-12-20T07:11:07;17.08;;;4.93;;
64110;SDS011;50401;48.188;11.566;2023-12-20T07:13:32;10.68;;;4.20;;
64110;SDS011;50401;48.188;11.566;2023-12-20T07:15:57;12.20;;;4.53;;
64110;SDS011;50401;48.188;11.566;2023-12-20T07:18:23;35.15;;;5.82;;
64110;SDS011;50401;48.188;11.566;2023-12-20T07:20:48;14.30;;;4.22;;
64110;SDS011;50401;48.188;11.566;2023-12-20T07:23:14;11.73;;;4.22;;
64110;SDS011;50401;48.188;11.566;2023-12-20T07:25:39;18.85;;;4.32;;
64110;SDS011;50401;48.188;11.566;2023-12-20T07:28:04;18.70;;;3.92;;
64110;SDS011;50401;48.188;11.566;2023-12-20T07:30:30;7.43;;;3.53;;
64110;SDS011;50401;48.188;11.566;2023-12-20T07:32:55;9.65;;;3.80;;
64110;SDS011;50401;48.188;11.566;2023-12-20T07:35:21;9.63;;;3.30;;
64110;SDS011;50401;48.188;11.566;2023-12-20T07:37:48;9.05;;;3.25;;
64110;SDS011;50401;48.188;11.566;2023-12-20T07:40:13;10.35;;;3.45;;
64110;SDS011;50401;48.188;11.566;2023-12-20T07:42:38;7.72;;;2.88;;
64110;SDS011;50401;48.188;11.566;2023-12-20T07:45:04;9.10;;;3.55;;
64110;SDS011;50401;48.188;11.566;2023-12-20T07:47:30;5.78;;;3.05;;
64110;SDS011;50401;48.188;11.566;2023-12-20T07:49:55;14.90;;;3.47;;
64110;SDS011;50401;48.188;11.566;2023-12-20T07:52:20;12.40;;;2.97;;
64110;SDS011;50401;48.188;11.566;2023-12-20T07:54:47;10.63;;;2.33;;
64110;SDS011;50401;48.188;11.566;2023-12-20T07:57:13;6.72;;;2.20;;
64110;SDS011;50401;48.188;11.566;2023-12-20T07:59:38;34.20;;;4.30;;
64110;SDS011;50401;48.188;11.566;2023-12-20T08:02:04;8.70;;;2.67;;
64110;SDS011;50401;48.188;11.566;2023-12-20T08:04:29;6.25;;;2.42;;
64110;SDS011;50401;48.188;11.566;2023-12-20T08:06:54;8.38;;;3.00;;
64110;SDS011;50401;48.188;11.566;2023-12-20T08:09:20;8.07;;;2.50;;
64110;SDS011;50401;48.188;11.566;2023-12-20T08:11:48;4.28;;;2.20;;
64110;SDS011;50401;48.188;11.566;2023-12-20T08:14:14;10.07;;;2.10;;
64110;SDS011;50401;48.188;11.566;2023-12-20T08:16:40;4.68;;;2.08;;
64110;SDS011;50401;48.188;11.566;2023-12-20T08:19:05;16.77;;;4.28;;
64110;SDS011;50401;48.188;11.566;2023-12-20T08:21:31;15.90;;;2.55;;
64110;SDS011;50401;48.188;11.566;2023-12-20T08:23:56;4.97;;;2.30;;
64110;SDS011;50401;48.188;11.566;2023-12-20T08:26:22;11.50;;;2.15;;
64110;SDS011;50401;48.188;11.566;2023-12-20T08:28:49;7.25;;;2.10;;
64110;SDS011;50401;48.188;11.566;2023-12-20T08:31:18;6.40;;;2.10;;
64110;SDS011;50401;48.188;11.566;2023-12-20T08:33:44;2.47;;;1.63;;
64110;SDS011;50401;48.188;11.566;2023-12-20T08:36:10;7.30;;;2.50;;
64110;SDS011;50401;48.188;11.566;2023-12-20T08:38:36;3.47;;;2.03;;
64110;SDS011;50401;48.188;11.566;2023-12-20T08:41:01;10.10;;;2.20;;
64110;SDS011;50401;48.188;11.566;2023-12-20T08:43:28;8.85;;;2.17;;
64110;SDS011;50401;48.188;11.566;2023-12-20T08:45:53;4.78;;;1.73;;
64110;SDS011;50401;48.188;11.566;2023-12-20T08:48:19;8.23;;;1.95;;
64110;SDS011;50401;48.188;11.566;2023-12-20T08:50:44;3.40;;;1.90;;
64110;SDS011;50401;48.188;11.566;2023-12-20T08:53:10;7.63;;;3.08;;
64110;SDS011;50401;48.188;11.566;2023-12-20T08:55:36;7.40;;;2.30;;
64110;SDS011;50401;48.188;11.566;2023-12-20T08:58:01;12.75;;;2.30;;
64110;SDS011;50401;48.188;11.566;2023-12-20T09:00:27;10.05;;;2.60;;
64110;SDS011;50401;48.188;11.566;2023-12-20T09:02:53;5.20;;;2.28;;
64110;SDS011;50401;48.188;11.566;2023-12-20T09:05:19;11.27;;;2.10;;
64110;SDS011;50401;48.188;11.566;2023-12-20T09:07:45;6.63;;;2.50;;
64110;SDS011;50401;48.188;11.566;2023-12-20T09:10:10;13.45;;;2.63;;
64110;SDS011;50401;48.188;11.566;2023-12-20T09:12:36;9.77;;;3.60;;
64110;SDS011;50401;48.188;11.566;2023-12-20T09:15:04;6.85;;;3.10;;
64110;SDS011;50401;48.188;11.566;2023-12-20T09:17:30;4.30;;;2.08;;
64110;SDS011;50401;48.188;11.566;2023-12-20T09:19:56;5.95;;;2.67;;
64110;SDS011;50401;48.188;11.566;2023-12-20T09:22:21;20.15;;;4.88;;
64110;SDS011;50401;48.188;11.566;2023-12-20T09:24:47;10.00;;;2.17;;
64110;SDS011;50401;48.188;11.566;2023-12-20T09:27:12;5.38;;;2.42;;
64110;SDS011;50401;48.188;11.566;2023-12-20T09:29:37;4.18;;;2.20;;
64110;SDS011;50401;48.188;11.566;2023-12-20T09:32:03;4.00;;;2.03;;
64110;SDS011;50401;48.188;11.566;2023-12-20T09:34:28;3.00;;;1.75;;
64110;SDS011;50401;48.188;11.566;2023-12-20T09:36:54;7.90;;;1.92;;
64110;SDS011;50401;48.188;11.566;2023-12-20T09:39:20;3.75;;;2.25;;
64110;SDS011;50401;48.188;11.566;2023-12-20T09:41:53;8.95;;;2.13;;
64110;SDS011;50401;48.188;11.566;2023-12-20T09:44:26;8.70;;;2.08;;
64110;SDS011;50401;48.188;11.566;2023-12-20T09:46:52;3.75;;;1.80;;
64110;SDS011;50401;48.188;11.566;2023-12-20T09:49:19;5.90;;;1.92;;
64110;SDS011;50401;48.188;11.566;2023-12-20T09:51:52;3.97;;;2.15;;
64110;SDS011;50401;48.188;11.566;2023-12-20T09:54:19;3.72;;;1.88;;
64110;SDS011;50401;48.188;11.566;2023-12-20T09:56:46;3.78;;;2.08;;
64110;SDS011;50401;48.188;11.566;2023-12-20T09:59:11;8.35;;;2.13;;
64110;SDS011;50401;48.188;11.566;2023-12-20T10:01:38;17.13;;;4.28;;
64110;SDS011;50401;48.188;11.566;2023-12-20T10:04:05;3.75;;;2.15;;
64110;SDS011;50401;48.188;11.566;2023-12-20T10:06:37;7.55;;;2.15;;
64110;SDS011;50401;48.188;11.566;2023-12-20T10:09:09;3.78;;;2.13;;
64110;SDS011;50401;48.188;11.566;2023-12-20T10:11:36;9.77;;;2.30;;
64110;SDS011;50401;48.188;11.566;2023-12-20T10:14:05;4.07;;;2.63;;
64110;SDS011;50401;48.188;11.566;2023-12-20T10:16:31;8.05;;;2.88;;
64110;SDS011;50401;48.188;11.566;2023-12-20T10:18:58;15.02;;;3.05;;
64110;SDS011;50401;48.188;11.566;2023-12-20T10:21:25;3.10;;;2.10;;
64110;SDS011;50401;48.188;11.566;2023-12-20T10:23:57;3.22;;;2.03;;
64110;SDS011;50401;48.188;11.566;2023-12-20T10:26:23;5.18;;;2.30;;
64110;SDS011;50401;48.188;11.566;2023-12-20T10:28:54;4.97;;;2.55;;
64110;SDS011;50401;48.188;11.566;2023-12-20T10:31:28;6.90;;;2.38;;
64110;SDS011;50401;48.188;11.566;2023-12-20T10:33:57;4.10;;;2.38;;
64110;SDS011;50401;48.188;11.566;2023-12-20T10:36:24;5.38;;;2.63;;
64110;SDS011;50401;48.188;11.566;2023-12-20T10:38:51;5.10;;;2.80;;
64110;SDS011;50401;48.188;11.566;2023-12-20T10:41:18;7.47;;;2.22;;
64110;SDS011;50401;48.188;11.566;2023-12-20T10:44:04;6.07;;;2.80;;
64110;SDS011;50401;48.188;11.566;2023-12-20T10:46:33;7.25;;;3.45;;
64110;SDS011;50401;48.188;11.566;2023-12-20T10:48:59;7.05;;;2.97;;
64110;SDS011;50401;48.188;11.566;2023-12-20T10:51:27;4.82;;;2.83;;
64110;SDS011;50401;48.188;11.566;2023-12-20T10:53:54;30.45;;;3.38;;
64110;SDS011;50401;48.188;11.566;2023-12-20T10:56:20;5.30;;;2.60;;
64110;SDS011;50401;48.188;11.566;2023-12-20T10:58:46;6.10;;;2.55;;
64110;SDS011;50401;48.188;11.566;2023-12-20T11:01:13;7.95;;;2.78;;
64110;SDS011;50401;48.188;11.566;2023-12-20T11:03:49;7.00;;;2.15;;
64110;SDS011;50401;48.188;11.566;2023-12-20T11:17:07;5.70;;;2.78;;
64110;SDS011;50401;48.188;11.566;2023-12-20T11:19:38;7.00;;;2.72;;
64110;SDS011;50401;48.188;11.566;2023-12-20T11:22:32;9.80;;;3.22;;
64110;SDS011;50401;48.188;11.566;2023-12-20T11:27:43;7.57;;;4.00;;
64110;SDS011;50401;48.188;11.566;2023-12-20T11:30:10;5.88;;;3.42;;
64110;SDS011;50401;48.188;11.566;2023-12-20T11:32:36;7.13;;;2.65;;
64110;SDS011;50401;48.188;11.566;2023-12-20T11:37:37;9.70;;;3.20;;
64110;SDS011;50401;48.188;11.566;2023-12-20T11:40:07;5.53;;;2.58;;
64110;SDS011;50401;48.188;11.566;2023-12-20T11:42:44;8.38;;;3.15;;
64110;SDS011;50401;48.188;11.566;2023-12-20T11:45:11;5.90;;;2.97;;
64110;SDS011;50401;48.188;11.566;2023-12-20T11:47:40;6.13;;;2.80;;
64110;SDS011;50401;48.188;11.566;2023-12-20T11:50:12;4.80;;;3.20;;
64110;SDS011;50401;48.188;11.566;2023-12-20T11:52:37;7.60;;;2.65;;
64110;SDS011;50401;48.188;11.566;2023-12-20T11:55:03;7.28;;;2.58;;
64110;SDS011;50401;48.188;11.566;2023-12-20T11:57:29;5.22;;;2.70;;
64110;SDS011;50401;48.188;11.566;2023-12-20T11:59:55;6.53;;;3.00;;
64110;SDS011;50401;48.188;11.566;2023-12-20T12:02:21;11.52;;;3.42;;
64110;SDS011;50401;48.188;11.566;2023-12-20T12:04:48;6.85;;;3.75;;
64110;SDS011;50401;48.188;11.566;2023-12-20T12:07:13;10.10;;;3.95;;
64110;SDS011;50401;48.188;11.566;2023-12-20T12:09:39;6.82;;;3.20;;
64110;SDS011;50401;48.188;11.566;2023-12-20T12:12:04;7.50;;;3.40;;
64110;SDS011;50401;48.188;11.566;2023-12-20T12:14:30;6.35;;;3.70;;
64110;SDS011;50401;48.188;11.566;2023-12-20T12:16:56;7.00;;;2.95;;
64110;SDS011;50401;48.188;11.566;2023-12-20T12:19:24;6.68;;;3.05;;
64110;SDS011;50401;48.188;11.566;2023-12-20T12:21:51;6.78;;;3.10;;
64110;SDS011;50401;48.188;11.566;2023-12-20T12:24:30;4.95;;;3.20;;
64110;SDS011;50401;48.188;11.566;2023-12-20T12:26:57;10.82;;;4.68;;
64110;SDS011;50401;48.188;11.566;2023-12-20T12:29:23;7.03;;;3.58;;
64110;SDS011;50401;48.188;11.566;2023-12-20T12:31:49;7.70;;;3.63;;
64110;SDS011;50401;48.188;11.566;2023-12-20T12:34:15;5.43;;;3.00;;
64110;SDS011;50401;48.188;11.566;2023-12-20T12:36:41;7.03;;;3.00;;
64110;SDS011;50401;48.188;11.566;2023-12-20T12:39:06;8.93;;;4.05;;
64110;SDS011;50401;48.188;11.566;2023-12-20T12:41:32;6.57;;;3.58;;
64110;SDS011;50401;48.188;11.566;2023-12-20T12:43:57;5.88;;;3.30;;
64110;SDS011;50401;48.188;11.566;2023-12-20T12:46:23;13.93;;;5.43;;
64110;SDS011;50401;48.188;11.566;2023-12-20T12:48:48;7.60;;;4.00;;
64110;SDS011;50401;48.188;11.566;2023-12-20T12:51:15;12.25;;;3.70;;
64110;SDS011;50401;48.188;11.566;2023-12-20T12:53:41;9.20;;;4.05;;
64110;SDS011;50401;48.188;11.566;2023-12-20T12:56:06;9.88;;;4.05;;
64110;SDS011;50401;48.188;11.566;2023-12-20T12:58:32;6.40;;;3.90;;
64110;SDS011;50401;48.188;11.566;2023-12-20T13:00:58;6.45;;;3.50;;
64110;SDS011;50401;48.188;11.566;2023-12-20T13:03:23;10.05;;;4.10;;
64110;SDS011;50401;48.188;11.566;2023-12-20T13:05:49;11.20;;;3.60;;
64110;SDS011;50401;48.188;11.566;2023-12-20T13:08:14;4.93;;;3.33;;
64110;SDS011;50401;48.188;11.566;2023-12-20T13:10:40;4.28;;;3.10;;
64110;SDS011;50401;48.188;11.566;2023-12-20T13:13:06;5.93;;;3.17;;
64110;SDS011;50401;48.188;11.566;2023-12-20T13:15:31;14.57;;;3.33;;
64110;SDS011;50401;48.188;11.566;2023-12-20T13:17:56;8.70;;;3.42;;
64110;SDS011;50401;48.188;11.566;2023-12-20T13:20:22;17.40;;;3.78;;
64110;SDS011;50401;48.188;11.566;2023-12-20T13:22:47;8.00;;;3.35;;
64110;SDS011;50401;48.188;11.566;2023-12-20T13:25:13;9.82;;;3.40;;
64110;SDS011;50401;48.188;11.566;2023-12-20T13:27:38;9.75;;;3.10;;
64110;SDS011;50401;48.188;11.566;2023-12-20T13:30:04;8.68;;;3.25;;
64110;SDS011;50401;48.188;11.566;2023-12-20T13:32:30;14.65;;;3.83;;
64110;SDS011;50401;48.188;11.566;2023-12-20T13:34:56;6.90;;;3.08;;
64110;SDS011;50401;48.188;11.566;2023-12-20T13:37:21;11.50;;;3.55;;
64110;SDS011;50401;48.188;11.566;2023-12-20T13:39:47;19.77;;;3.95;;
64110;SDS011;50401;48.188;11.566;2023-12-20T13:42:12;16.30;;;4.00;;
64110;SDS011;50401;48.188;11.566;2023-12-20T13:44:38;8.23;;;3.90;;
64110;SDS011;50401;48.188;11.566;2023-12-20T13:47:03;11.60;;;3.60;;
64110;SDS011;50401;48.188;11.566;2023-12-20T13:49:29;14.32;;;3.97;;
64110;SDS011;50401;48.188;11.566;2023-12-20T13:51:54;14.00;;;4.10;;
64110;SDS011;50401;48.188;11.566;2023-12-20T13:54:20;13.80;;;4.22;;
64110;SDS011;50401;48.188;11.566;2023-12-20T13:56:47;9.95;;;3.85;;
64110;SDS011;50401;48.188;11.566;2023-12-20T13:59:12;9.63;;;3.83;;
64110;SDS011;50401;48.188;11.566;2023-12-20T14:01:39;8.38;;;3.85;;
64110;SDS011;50401;48.188;11.566;2023-12-20T14:04:04;13.15;;;4.07;;
64110;SDS011;50401;48.188;11.566;2023-12-20T14:06:29;12.77;;;4.47;;
64110;SDS011;50401;48.188;11.566;2023-12-20T14:08:55;10.10;;;4.15;;
64110;SDS011;50401;48.188;11.566;2023-12-20T14:11:20;9.65;;;3.75;;
64110;SDS011;50401;48.188;11.566;2023-12-20T14:13:46;10.32;;;3.83;;
64110;SDS011;50401;48.188;11.566;2023-12-20T14:16:11;8.38;;;3.47;;
64110;SDS011;50401;48.188;11.566;2023-12-20T14:18:37;14.95;;;4.80;;
64110;SDS011;50401;48.188;11.566;2023-12-20T14:21:05;9.45;;;3.95;;
64110;SDS011;50401;48.188;11.566;2023-12-20T14:23:31;12.85;;;3.50;;
64110;SDS011;50401;48.188;11.566;2023-12-20T14:25:58;14.70;;;3.53;;
64110;SDS011;50401;48.188;11.566;2023-12-20T14:28:24;10.68;;;3.53;;
64110;SDS011;50401;48.188;11.566;2023-12-20T14:30:50;8.38;;;3.33;;
64110;SDS011;50401;48.188;11.566;2023-12-20T14:33:15;10.18;;;2.80;;
64110;SDS011;50401;48.188;11.566;2023-12-20T14:35:41;10.15;;;3.10;;
64110;SDS011;50401;48.188;11.566;2023-12-20T14:38:07;8.32;;;3.35;;
64110;SDS011;50401;48.188;11.566;2023-12-20T14:40:33;4.60;;;2.58;;